sensor_id;sensor_type;location;lat;lon;timestamp;pressure;altitude;pressure_sealevel;temperature;humidity
68758;BME280;55747;51.998;4.466;2022-09-01T00:02:03;78351.28;;;-144.48;67.35
68758;BME280;55747;51.998;4.466;2022-09-01T00:04:36;78355.44;;;-144.48;67.42
68758;BME280;55747;51.998;4.466;2022-09-01T00:07:04;78357.50;;;-144.48;67.71
68758;BME280;55747;51.998;4.466;2022-09-01T00:09:30;78357.50;;;-144.48;67.67
68758;BME280;55747;51.998;4.466;2022-09-01T00:11:55;78353.34;;;-144.48;67.69
68758;BME280;55747;51.998;4.466;2022-09-01T00:14:25;78357.50;;;-144.48;67.98
68758;BME280;55747;51.998;4.466;2022-09-01T00:16:51;78363.75;;;-144.48;68.21
68758;BME280;55747;51.998;4.466;2022-09-01T00:19:16;78357.50;;;-144.48;68.07
68758;BME280;55747;51.998;4.466;2022-09-01T00:21:43;78363.75;;;-144.48;68.20
68758;BME280;55747;51.998;4.466;2022-09-01T00:24:11;78363.75;;;-144.48;68.39
68758;BME280;55747;51.998;4.466;2022-09-01T00:26:37;78370.00;;;-144.48;68.47
68758;BME280;55747;51.998;4.466;2022-09-01T00:29:03;78372.06;;;-144.48;68.46
68758;BME280;55747;51.998;4.466;2022-09-01T00:31:29;78376.22;;;-144.48;68.74
68758;BME280;55747;51.998;4.466;2022-09-01T00:33:54;78380.38;;;-144.48;68.91
68758;BME280;55747;51.998;4.466;2022-09-01T00:36:20;78382.47;;;-144.48;68.99
68758;BME280;55747;51.998;4.466;2022-09-01T00:38:46;78380.38;;;-144.48;69.11
68758;BME280;55747;51.998;4.466;2022-09-01T00:41:12;78380.38;;;-144.48;69.36
68758;BME280;55747;51.998;4.466;2022-09-01T00:44:03;78380.38;;;-144.48;69.35
68758;BME280;55747;51.998;4.466;2022-09-01T00:46:36;78382.47;;;-144.48;69.25
68758;BME280;55747;51.998;4.466;2022-09-01T00:49:08;78386.63;;;-144.48;69.52
68758;BME280;55747;51.998;4.466;2022-09-01T00:51:37;78384.53;;;-144.48;69.73
68758;BME280;55747;51.998;4.466;2022-09-01T00:54:04;78386.63;;;-144.48;69.83
68758;BME280;55747;51.998;4.466;2022-09-01T00:56:33;78386.63;;;-144.48;69.90
68758;BME280;55747;51.998;4.466;2022-09-01T00:58:59;78390.78;;;-144.48;69.98
68758;BME280;55747;51.998;4.466;2022-09-01T01:01:26;78390.78;;;-144.48;70.10
68758;BME280;55747;51.998;4.466;2022-09-01T01:03:51;78390.78;;;-144.48;70.29
68758;BME280;55747;51.998;4.466;2022-09-01T01:06:17;78394.94;;;-144.48;70.09
68758;BME280;55747;51.998;4.466;2022-09-01T01:08:46;78394.94;;;-144.48;70.01
68758;BME280;55747;51.998;4.466;2022-09-01T01:11:29;78390.78;;;-144.48;70.12
68758;BME280;55747;51.998;4.466;2022-09-01T01:14:00;78390.78;;;-144.48;70.19
68758;BME280;55747;51.998;4.466;2022-09-01T01:16:30;78390.78;;;-144.48;70.06
68758;BME280;55747;51.998;4.466;2022-09-01T01:18:55;78392.84;;;-144.48;69.97
68758;BME280;55747;51.998;4.466;2022-09-01T01:24:19;78390.78;;;-144.48;69.94
68758;BME280;55747;51.998;4.466;2022-09-01T01:26:45;78399.09;;;-144.48;70.56
68758;BME280;55747;51.998;4.466;2022-09-01T01:29:11;78399.09;;;-144.48;70.51
68758;BME280;55747;51.998;4.466;2022-09-01T01:31:37;78401.16;;;-144.48;70.58
68758;BME280;55747;51.998;4.466;2022-09-01T01:34:02;78407.41;;;-144.48;70.59
68758;BME280;55747;51.998;4.466;2022-09-01T01:36:34;78409.47;;;-144.48;70.48
68758;BME280;55747;51.998;4.466;2022-09-01T01:39:11;78413.66;;;-144.48;70.85
68758;BME280;55747;51.998;4.466;2022-09-01T01:41:38;78409.47;;;-144.48;70.82
68758;BME280;55747;51.998;4.466;2022-09-01T01:44:07;78415.72;;;-144.48;71.00
68758;BME280;55747;51.998;4.466;2022-09-01T01:46:34;78417.81;;;-144.48;71.30
68758;BME280;55747;51.998;4.466;2022-09-01T01:48:59;78426.13;;;-144.48;71.52
68758;BME280;55747;51.998;4.466;2022-09-01T01:51:27;78432.34;;;-144.48;71.68
68758;BME280;55747;51.998;4.466;2022-09-01T01:53:55;78438.59;;;-144.48;71.95
68758;BME280;55747;51.998;4.466;2022-09-01T01:56:22;78430.28;;;-144.48;72.01
68758;BME280;55747;51.998;4.466;2022-09-01T01:58:55;78436.50;;;-144.48;72.01
68758;BME280;55747;51.998;4.466;2022-09-01T02:01:25;78444.81;;;-144.48;72.15
68758;BME280;55747;51.998;4.466;2022-09-01T02:03:53;78442.75;;;-144.48;72.15
68758;BME280;55747;51.998;4.466;2022-09-01T02:06:21;78440.66;;;-144.48;72.09
68758;BME280;55747;51.998;4.466;2022-09-01T02:08:54;78442.75;;;-144.48;72.28
68758;BME280;55747;51.998;4.466;2022-09-01T02:11:26;78446.91;;;-144.48;72.22
68758;BME280;55747;51.998;4.466;2022-09-01T02:13:52;78453.13;;;-144.48;72.42
68758;BME280;55747;51.998;4.466;2022-09-01T02:16:22;78459.38;;;-144.48;72.67
68758;BME280;55747;51.998;4.466;2022-09-01T02:18:48;78459.38;;;-144.48;72.98
68758;BME280;55747;51.998;4.466;2022-09-01T02:21:15;78455.22;;;-144.48;73.02
68758;BME280;55747;51.998;4.466;2022-09-01T02:23:54;78457.31;;;-144.48;72.96
68758;BME280;55747;51.998;4.466;2022-09-01T02:26:36;78461.47;;;-144.48;73.20
68758;BME280;55747;51.998;4.466;2022-09-01T02:29:05;78461.47;;;-144.48;73.28
68758;BME280;55747;51.998;4.466;2022-09-01T02:31:32;78465.63;;;-144.48;73.57
68758;BME280;55747;51.998;4.466;2022-09-01T02:33:59;78465.63;;;-144.48;73.43
68758;BME280;55747;51.998;4.466;2022-09-01T02:36:25;78467.69;;;-144.48;73.48
68758;BME280;55747;51.998;4.466;2022-09-01T02:38:51;78467.69;;;-144.48;73.49
68758;BME280;55747;51.998;4.466;2022-09-01T02:41:18;78463.53;;;-144.48;73.38
68758;BME280;55747;51.998;4.466;2022-09-01T02:43:45;78465.63;;;-144.48;73.46
68758;BME280;55747;51.998;4.466;2022-09-01T02:46:11;78471.84;;;-144.48;73.46
68758;BME280;55747;51.998;4.466;2022-09-01T02:48:39;78471.84;;;-144.48;73.68
68758;BME280;55747;51.998;4.466;2022-09-01T02:51:09;78469.78;;;-144.48;73.65
68758;BME280;55747;51.998;4.466;2022-09-01T02:53:37;78469.78;;;-144.48;73.81
68758;BME280;55747;51.998;4.466;2022-09-01T02:56:06;78467.69;;;-144.48;73.65
68758;BME280;55747;51.998;4.466;2022-09-01T02:58:36;78461.47;;;-144.48;73.65
68758;BME280;55747;51.998;4.466;2022-09-01T03:03:51;78455.22;;;-144.48;73.57
68758;BME280;55747;51.998;4.466;2022-09-01T03:06:18;78459.38;;;-144.48;73.52
68758;BME280;55747;51.998;4.466;2022-09-01T03:08:45;78457.31;;;-144.48;73.45
68758;BME280;55747;51.998;4.466;2022-09-01T03:11:11;78453.13;;;-144.48;73.42
68758;BME280;55747;51.998;4.466;2022-09-01T03:13:38;78455.22;;;-144.48;73.53
68758;BME280;55747;51.998;4.466;2022-09-01T03:16:05;78457.31;;;-144.48;73.49
68758;BME280;55747;51.998;4.466;2022-09-01T03:18:30;78455.22;;;-144.48;73.28
68758;BME280;55747;51.998;4.466;2022-09-01T03:20:55;78451.06;;;-144.48;73.04
68758;BME280;55747;51.998;4.466;2022-09-01T03:23:21;78440.66;;;-144.48;72.86
68758;BME280;55747;51.998;4.466;2022-09-01T03:25:49;78448.97;;;-144.48;72.92
68758;BME280;55747;51.998;4.466;2022-09-01T03:28:15;78455.22;;;-144.48;72.92
68758;BME280;55747;51.998;4.466;2022-09-01T03:30:46;78463.53;;;-144.48;73.21
68758;BME280;55747;51.998;4.466;2022-09-01T03:33:13;78457.31;;;-144.48;73.11
68758;BME280;55747;51.998;4.466;2022-09-01T03:35:38;78451.06;;;-144.48;73.00
68758;BME280;55747;51.998;4.466;2022-09-01T03:38:04;78455.22;;;-144.48;73.36
68758;BME280;55747;51.998;4.466;2022-09-01T03:40:32;78455.22;;;-144.48;73.27
68758;BME280;55747;51.998;4.466;2022-09-01T03:42:59;78473.94;;;-144.48;73.49
68758;BME280;55747;51.998;4.466;2022-09-01T03:45:25;78473.94;;;-144.48;74.09
68758;BME280;55747;51.998;4.466;2022-09-01T03:47:52;78478.09;;;-144.48;73.72
68758;BME280;55747;51.998;4.466;2022-09-01T03:50:20;78480.16;;;-144.48;73.92
68758;BME280;55747;51.998;4.466;2022-09-01T03:52:51;78486.41;;;-144.48;73.98
68758;BME280;55747;51.998;4.466;2022-09-01T03:55:18;78484.31;;;-144.48;73.84
68758;BME280;55747;51.998;4.466;2022-09-01T03:57:51;78480.16;;;-144.48;73.77
68758;BME280;55747;51.998;4.466;2022-09-01T04:00:19;78480.16;;;-144.48;73.71
68758;BME280;55747;51.998;4.466;2022-09-01T04:02:53;78484.31;;;-144.48;73.86
68758;BME280;55747;51.998;4.466;2022-09-01T04:05:25;78484.31;;;-144.48;73.82
68758;BME280;55747;51.998;4.466;2022-09-01T04:07:57;78484.31;;;-144.48;73.87
68758;BME280;55747;51.998;4.466;2022-09-01T04:10:22;78484.31;;;-144.48;73.89
68758;BME280;55747;51.998;4.466;2022-09-01T04:12:48;78490.56;;;-144.48;74.05
68758;BME280;55747;51.998;4.466;2022-09-01T04:15:15;78494.72;;;-144.48;74.29
68758;BME280;55747;51.998;4.466;2022-09-01T04:17:45;78492.63;;;-144.48;74.27
68758;BME280;55747;51.998;4.466;2022-09-01T04:20:34;78503.03;;;-144.48;74.33
68758;BME280;55747;51.998;4.466;2022-09-01T04:23:12;78505.13;;;-144.48;74.51
68758;BME280;55747;51.998;4.466;2022-09-01T04:25:41;78503.03;;;-144.48;74.47
68758;BME280;55747;51.998;4.466;2022-09-01T04:28:06;78509.28;;;-144.48;74.42
68758;BME280;55747;51.998;4.466;2022-09-01T04:30:39;78509.28;;;-144.48;74.23
68758;BME280;55747;51.998;4.466;2022-09-01T04:33:07;78519.66;;;-144.48;74.42
68758;BME280;55747;51.998;4.466;2022-09-01T04:35:37;78525.91;;;-144.48;74.48
68758;BME280;55747;51.998;4.466;2022-09-01T04:38:03;78525.91;;;-144.48;74.41
68758;BME280;55747;51.998;4.466;2022-09-01T04:40:29;78527.97;;;-144.48;74.36
68758;BME280;55747;51.998;4.466;2022-09-01T04:42:55;78525.91;;;-144.48;74.44
68758;BME280;55747;51.998;4.466;2022-09-01T04:45:20;78532.13;;;-144.48;74.37
68758;BME280;55747;51.998;4.466;2022-09-01T04:47:51;78527.97;;;-144.48;74.44
68758;BME280;55747;51.998;4.466;2022-09-01T04:50:17;78538.38;;;-144.48;74.47
68758;BME280;55747;51.998;4.466;2022-09-01T04:52:44;78536.28;;;-144.48;74.51
68758;BME280;55747;51.998;4.466;2022-09-01T04:55:11;78538.38;;;-144.48;74.56
68758;BME280;55747;51.998;4.466;2022-09-01T04:57:47;78538.38;;;-144.48;74.47
68758;BME280;55747;51.998;4.466;2022-09-01T05:00:15;78544.63;;;-144.48;74.28
68758;BME280;55747;51.998;4.466;2022-09-01T05:02:57;78536.28;;;-144.48;74.28
68758;BME280;55747;51.998;4.466;2022-09-01T05:05:27;78538.38;;;-144.48;74.14
68758;BME280;55747;51.998;4.466;2022-09-01T05:07:53;78540.47;;;-144.48;74.04
68758;BME280;55747;51.998;4.466;2022-09-01T05:10:20;78525.91;;;-144.48;73.76
68758;BME280;55747;51.998;4.466;2022-09-01T05:12:46;78527.97;;;-144.48;73.49
68758;BME280;55747;51.998;4.466;2022-09-01T05:15:13;78513.44;;;-144.48;73.33
68758;BME280;55747;51.998;4.466;2022-09-01T05:17:39;78507.19;;;-144.48;72.75
68758;BME280;55747;51.998;4.466;2022-09-01T05:20:05;78500.97;;;-144.48;72.42
68758;BME280;55747;51.998;4.466;2022-09-01T05:22:32;78484.31;;;-144.48;71.91
68758;BME280;55747;51.998;4.466;2022-09-01T05:24:59;78473.94;;;-144.48;71.36
68758;BME280;55747;51.998;4.466;2022-09-01T05:27:36;78469.78;;;-144.48;71.05
68758;BME280;55747;51.998;4.466;2022-09-01T05:30:04;78459.38;;;-144.48;70.48
68758;BME280;55747;51.998;4.466;2022-09-01T05:32:33;78453.13;;;-144.48;70.29
68758;BME280;55747;51.998;4.466;2022-09-01T05:35:02;78451.06;;;-144.48;70.01
68758;BME280;55747;51.998;4.466;2022-09-01T05:37:27;78446.91;;;-144.48;69.92
68758;BME280;55747;51.998;4.466;2022-09-01T05:39:54;78415.72;;;-144.48;69.24
68758;BME280;55747;51.998;4.466;2022-09-01T05:42:20;78380.38;;;-144.48;67.47
68758;BME280;55747;51.998;4.466;2022-09-01T05:44:45;78357.50;;;-144.48;66.66
68758;BME280;55747;51.998;4.466;2022-09-01T05:47:12;78205.75;;;-144.48;63.60
68758;BME280;55747;51.998;4.466;2022-09-01T05:49:37;78085.19;;;-144.48;59.55
68758;BME280;55747;51.998;4.466;2022-09-01T05:52:04;77991.66;;;-144.48;56.61
68758;BME280;55747;51.998;4.466;2022-09-01T05:54:29;77908.53;;;-144.48;54.24
68758;BME280;55747;51.998;4.466;2022-09-01T05:56:57;77866.94;;;-144.48;52.60
68758;BME280;55747;51.998;4.466;2022-09-01T05:59:26;77871.09;;;-144.48;52.94
68758;BME280;55747;51.998;4.466;2022-09-01T06:01:53;77800.44;;;-144.48;51.19
68758;BME280;55747;51.998;4.466;2022-09-01T06:04:18;77765.09;;;-144.48;49.93
68758;BME280;55747;51.998;4.466;2022-09-01T06:06:46;77765.09;;;-144.48;49.53
68758;BME280;55747;51.998;4.466;2022-09-01T06:09:14;77729.75;;;-144.48;49.17
68758;BME280;55747;51.998;4.466;2022-09-01T06:11:43;77684.03;;;-144.48;48.16
68758;BME280;55747;51.998;4.466;2022-09-01T06:14:11;77650.78;;;-144.48;47.03
68758;BME280;55747;51.998;4.466;2022-09-01T06:16:37;77648.72;;;-144.48;46.59
68758;BME280;55747;51.998;4.466;2022-09-01T06:19:03;77575.97;;;-144.48;45.93
68758;BME280;55747;51.998;4.466;2022-09-01T06:21:28;77538.56;;;-144.48;44.96
68758;BME280;55747;51.998;4.466;2022-09-01T06:23:56;77623.75;;;-144.48;45.52
68758;BME280;55747;51.998;4.466;2022-09-01T06:28:48;77534.41;;;-144.48;44.56
68758;BME280;55747;51.998;4.466;2022-09-01T06:31:20;77536.47;;;-144.48;44.78
68758;BME280;55747;51.998;4.466;2022-09-01T06:33:49;77476.19;;;-144.48;43.12
68758;BME280;55747;51.998;4.466;2022-09-01T06:36:15;77457.50;;;-144.48;43.04
68758;BME280;55747;51.998;4.466;2022-09-01T06:38:45;77411.78;;;-144.48;42.49
68758;BME280;55747;51.998;4.466;2022-09-01T06:41:11;77405.53;;;-144.48;42.19
68758;BME280;55747;51.998;4.466;2022-09-01T06:43:40;77378.53;;;-144.48;41.65
68758;BME280;55747;51.998;4.466;2022-09-01T06:46:07;77334.88;;;-144.48;41.02
68758;BME280;55747;51.998;4.466;2022-09-01T06:48:35;77322.41;;;-144.48;40.59
68758;BME280;55747;51.998;4.466;2022-09-01T06:51:01;77314.09;;;-144.48;40.38
68758;BME280;55747;51.998;4.466;2022-09-01T06:53:28;77309.94;;;-144.48;40.11
68758;BME280;55747;51.998;4.466;2022-09-01T06:55:56;77210.19;;;-144.48;39.09
68758;BME280;55747;51.998;4.466;2022-09-01T06:58:22;77224.72;;;-144.48;39.06
68758;BME280;55747;51.998;4.466;2022-09-01T07:00:47;77235.13;;;-144.48;38.83
68758;BME280;55747;51.998;4.466;2022-09-01T07:03:14;77239.28;;;-144.48;38.99
68758;BME280;55747;51.998;4.466;2022-09-01T07:05:41;77233.03;;;-144.48;39.04
68758;BME280;55747;51.998;4.466;2022-09-01T07:08:09;77243.44;;;-144.48;38.86
68758;BME280;55747;51.998;4.466;2022-09-01T07:10:43;77249.66;;;-144.48;39.00
68758;BME280;55747;51.998;4.466;2022-09-01T07:13:14;77297.47;;;-144.48;39.33
68758;BME280;55747;51.998;4.466;2022-09-01T07:15:44;77291.22;;;-144.48;38.93
68758;BME280;55747;51.998;4.466;2022-09-01T07:18:13;77393.06;;;-144.48;40.25
68758;BME280;55747;51.998;4.466;2022-09-01T07:20:40;77253.81;;;-144.48;39.04
68758;BME280;55747;51.998;4.466;2022-09-01T07:23:06;77100.03;;;-144.48;37.10
68758;BME280;55747;51.998;4.466;2022-09-01T07:25:32;77210.19;;;-144.48;37.97
68758;BME280;55747;51.998;4.466;2022-09-01T07:27:58;77145.75;;;-144.48;37.01
68758;BME280;55747;51.998;4.466;2022-09-01T07:30:24;77158.22;;;-144.48;37.38
68758;BME280;55747;51.998;4.466;2022-09-01T07:32:50;77122.91;;;-144.48;36.62
68758;BME280;55747;51.998;4.466;2022-09-01T07:35:19;77152.00;;;-144.48;36.65
68758;BME280;55747;51.998;4.466;2022-09-01T07:37:47;77083.41;;;-144.48;36.44
68758;BME280;55747;51.998;4.466;2022-09-01T07:40:14;77141.59;;;-144.48;36.67
68758;BME280;55747;51.998;4.466;2022-09-01T07:42:44;77050.16;;;-144.48;35.79
68758;BME280;55747;51.998;4.466;2022-09-01T07:45:12;77006.53;;;-144.48;34.73
68758;BME280;55747;51.998;4.466;2022-09-01T07:47:39;77133.28;;;-144.48;35.79
68758;BME280;55747;51.998;4.466;2022-09-01T07:50:07;77220.56;;;-144.48;36.76
68758;BME280;55747;51.998;4.466;2022-09-01T07:52:37;77245.50;;;-144.48;37.34
68758;BME280;55747;51.998;4.466;2022-09-01T07:55:13;77162.38;;;-144.48;36.82
68758;BME280;55747;51.998;4.466;2022-09-01T07:57:40;77068.88;;;-144.48;35.54
68758;BME280;55747;51.998;4.466;2022-09-01T08:00:08;77135.38;;;-144.48;35.89
68758;BME280;55747;51.998;4.466;2022-09-01T08:02:34;77033.53;;;-144.48;35.09
68758;BME280;55747;51.998;4.466;2022-09-01T08:05:02;76967.03;;;-144.48;34.27
68758;BME280;55747;51.998;4.466;2022-09-01T08:07:28;76879.75;;;-144.48;33.17
68758;BME280;55747;51.998;4.466;2022-09-01T08:09:53;76937.94;;;-144.48;34.06
68758;BME280;55747;51.998;4.466;2022-09-01T08:12:19;76935.88;;;-144.48;33.77
68758;BME280;55747;51.998;4.466;2022-09-01T08:14:44;76817.41;;;-144.48;32.49
68758;BME280;55747;51.998;4.466;2022-09-01T08:17:10;76782.09;;;-144.48;32.39
68758;BME280;55747;51.998;4.466;2022-09-01T08:19:36;76881.84;;;-144.48;33.16
68758;BME280;55747;51.998;4.466;2022-09-01T08:22:01;76915.09;;;-144.48;33.45
68758;BME280;55747;51.998;4.466;2022-09-01T08:24:26;76865.22;;;-144.48;32.91
68758;BME280;55747;51.998;4.466;2022-09-01T08:26:52;76886.00;;;-144.48;33.23
68758;BME280;55747;51.998;4.466;2022-09-01T08:29:17;76881.84;;;-144.48;33.22
68758;BME280;55747;51.998;4.466;2022-09-01T08:31:42;76844.44;;;-144.48;33.35
68758;BME280;55747;51.998;4.466;2022-09-01T08:34:10;76925.47;;;-144.48;33.72
68758;BME280;55747;51.998;4.466;2022-09-01T08:36:36;76954.56;;;-144.48;34.27
68758;BME280;55747;51.998;4.466;2022-09-01T08:39:02;76904.69;;;-144.48;34.00
68758;BME280;55747;51.998;4.466;2022-09-01T08:41:53;76948.34;;;-144.48;34.04
68758;BME280;55747;51.998;4.466;2022-09-01T08:45:46;76894.31;;;-144.48;34.04
68758;BME280;55747;51.998;4.466;2022-09-01T08:47:46;76879.75;;;-144.48;33.95
68758;BME280;55747;51.998;4.466;2022-09-01T08:50:12;76840.28;;;-144.48;33.27
68758;BME280;55747;51.998;4.466;2022-09-01T08:52:41;76834.03;;;-144.48;32.99
68758;BME280;55747;51.998;4.466;2022-09-01T08:55:17;76848.59;;;-144.48;33.11
68758;BME280;55747;51.998;4.466;2022-09-01T08:57:50;76892.22;;;-144.48;33.62
68758;BME280;55747;51.998;4.466;2022-09-01T09:00:19;76956.66;;;-144.48;34.10
68758;BME280;55747;51.998;4.466;2022-09-01T09:11:22;76933.78;;;-144.48;34.30
68758;BME280;55747;51.998;4.466;2022-09-01T09:14:07;76875.59;;;-144.48;33.12
68758;BME280;55747;51.998;4.466;2022-09-01T09:16:42;76896.38;;;-144.48;33.84
68758;BME280;55747;51.998;4.466;2022-09-01T09:21:41;76663.66;;;-144.48;31.22
68758;BME280;55747;51.998;4.466;2022-09-01T09:24:12;76676.13;;;-144.48;31.67
68758;BME280;55747;51.998;4.466;2022-09-01T09:26:47;76713.53;;;-144.48;31.73
68758;BME280;55747;51.998;4.466;2022-09-01T09:29:13;76780.00;;;-144.48;32.44
68758;BME280;55747;51.998;4.466;2022-09-01T09:31:39;76755.06;;;-144.48;32.38
68758;BME280;55747;51.998;4.466;2022-09-01T09:34:30;76653.25;;;-144.48;31.50
68758;BME280;55747;51.998;4.466;2022-09-01T09:37:29;76694.81;;;-144.48;31.56
68758;BME280;55747;51.998;4.466;2022-09-01T09:40:24;76796.63;;;-144.48;32.73
68758;BME280;55747;51.998;4.466;2022-09-01T09:45:34;76605.47;;;-144.48;31.21
68758;BME280;55747;51.998;4.466;2022-09-01T09:48:06;76572.22;;;-144.48;30.37
68758;BME280;55747;51.998;4.466;2022-09-01T09:50:39;76703.13;;;-144.48;31.39
68758;BME280;55747;51.998;4.466;2022-09-01T09:53:15;76765.47;;;-144.48;31.75
68758;BME280;55747;51.998;4.466;2022-09-01T09:56:02;76792.47;;;-144.48;31.80
68758;BME280;55747;51.998;4.466;2022-09-01T09:58:34;76740.53;;;-144.48;31.32
68758;BME280;55747;51.998;4.466;2022-09-01T10:01:05;76680.28;;;-144.48;31.02
68758;BME280;55747;51.998;4.466;2022-09-01T10:03:35;76626.25;;;-144.48;30.71
68758;BME280;55747;51.998;4.466;2022-09-01T10:06:01;76613.78;;;-144.48;30.15
68758;BME280;55747;51.998;4.466;2022-09-01T10:10:53;76786.25;;;-144.48;31.76
68758;BME280;55747;51.998;4.466;2022-09-01T10:13:22;76746.78;;;-144.48;31.08
68758;BME280;55747;51.998;4.466;2022-09-01T10:15:54;76661.56;;;-144.48;29.98
68758;BME280;55747;51.998;4.466;2022-09-01T10:18:31;76698.97;;;-144.48;30.56
68758;BME280;55747;51.998;4.466;2022-09-01T10:21:06;76734.31;;;-144.48;30.90
68758;BME280;55747;51.998;4.466;2022-09-01T10:23:35;76657.41;;;-144.48;30.73
68758;BME280;55747;51.998;4.466;2022-09-01T10:26:16;76678.19;;;-144.48;30.75
68758;BME280;55747;51.998;4.466;2022-09-01T10:28:51;76692.75;;;-144.48;30.50
68758;BME280;55747;51.998;4.466;2022-09-01T10:31:19;76653.25;;;-144.48;29.68
68758;BME280;55747;51.998;4.466;2022-09-01T10:33:47;76582.59;;;-144.48;29.10
68758;BME280;55747;51.998;4.466;2022-09-01T10:36:13;76572.22;;;-144.48;28.80
68758;BME280;55747;51.998;4.466;2022-09-01T10:38:41;76584.69;;;-144.48;29.13
68758;BME280;55747;51.998;4.466;2022-09-01T10:41:07;76536.91;;;-144.48;28.98
68758;BME280;55747;51.998;4.466;2022-09-01T10:43:44;76563.91;;;-144.48;28.56
68758;BME280;55747;51.998;4.466;2022-09-01T10:49:12;76659.50;;;-144.48;29.52
68758;BME280;55747;51.998;4.466;2022-09-01T10:51:44;76665.72;;;-144.48;29.67
68758;BME280;55747;51.998;4.466;2022-09-01T10:57:23;76680.28;;;-144.48;29.81
68758;BME280;55747;51.998;4.466;2022-09-01T10:59:52;76719.75;;;-144.48;30.13
68758;BME280;55747;51.998;4.466;2022-09-01T11:02:20;76669.88;;;-144.48;29.38
68758;BME280;55747;51.998;4.466;2022-09-01T11:10:22;76622.09;;;-144.48;29.39
68758;BME280;55747;51.998;4.466;2022-09-01T11:15:37;76632.47;;;-144.48;29.29
68758;BME280;55747;51.998;4.466;2022-09-01T11:18:09;76630.41;;;-144.48;29.29
68758;BME280;55747;51.998;4.466;2022-09-01T11:20:38;76572.22;;;-144.48;28.93
68758;BME280;55747;51.998;4.466;2022-09-01T11:25:37;76686.50;;;-144.48;29.24
68758;BME280;55747;51.998;4.466;2022-09-01T11:30:58;76613.78;;;-144.48;28.72
68758;BME280;55747;51.998;4.466;2022-09-01T11:33:49;76615.84;;;-144.48;28.75
68758;BME280;55747;51.998;4.466;2022-09-01T11:39:18;76630.41;;;-144.48;28.78
68758;BME280;55747;51.998;4.466;2022-09-01T11:42:07;76593.00;;;-144.48;28.37
68758;BME280;55747;51.998;4.466;2022-09-01T11:44:41;76549.38;;;-144.48;28.08
68758;BME280;55747;51.998;4.466;2022-09-01T11:47:14;76534.81;;;-144.48;28.08
68758;BME280;55747;51.998;4.466;2022-09-01T11:49:54;76528.59;;;-144.48;27.94
68758;BME280;55747;51.998;4.466;2022-09-01T11:52:24;76480.78;;;-144.48;27.45
68758;BME280;55747;51.998;4.466;2022-09-01T11:54:50;76505.72;;;-144.48;27.54
68758;BME280;55747;51.998;4.466;2022-09-01T11:59:43;76505.72;;;-144.48;27.22
68758;BME280;55747;51.998;4.466;2022-09-01T12:02:16;76532.75;;;-144.48;27.31
68758;BME280;55747;51.998;4.466;2022-09-01T12:04:42;76555.59;;;-144.48;27.38
68758;BME280;55747;51.998;4.466;2022-09-01T12:07:12;76572.22;;;-144.48;27.62
68758;BME280;55747;51.998;4.466;2022-09-01T12:09:46;76584.69;;;-144.48;27.80
68758;BME280;55747;51.998;4.466;2022-09-01T12:12:29;76545.22;;;-144.48;28.13
68758;BME280;55747;51.998;4.466;2022-09-01T12:15:08;76634.56;;;-144.48;28.39
68758;BME280;55747;51.998;4.466;2022-09-01T12:17:34;76489.09;;;-144.48;27.23
68758;BME280;55747;51.998;4.466;2022-09-01T12:20:24;76503.66;;;-144.48;26.50
68758;BME280;55747;51.998;4.466;2022-09-01T12:22:50;76514.03;;;-144.48;26.60
68758;BME280;55747;51.998;4.466;2022-09-01T12:25:28;76505.72;;;-144.48;26.78
68758;BME280;55747;51.998;4.466;2022-09-01T12:27:54;76566.00;;;-144.48;27.14
68758;BME280;55747;51.998;4.466;2022-09-01T12:30:20;76578.47;;;-144.48;26.92
68758;BME280;55747;51.998;4.466;2022-09-01T12:32:46;76534.81;;;-144.48;26.71
68758;BME280;55747;51.998;4.466;2022-09-01T12:35:25;76509.88;;;-144.48;26.31
68758;BME280;55747;51.998;4.466;2022-09-01T12:37:50;76468.31;;;-144.48;26.37
68758;BME280;55747;51.998;4.466;2022-09-01T12:40:30;76507.81;;;-144.48;26.47
68758;BME280;55747;51.998;4.466;2022-09-01T12:42:56;76536.91;;;-144.48;26.65
68758;BME280;55747;51.998;4.466;2022-09-01T12:45:45;76497.41;;;-144.48;26.07
68758;BME280;55747;51.998;4.466;2022-09-01T12:48:23;76541.06;;;-144.48;26.61
68758;BME280;55747;51.998;4.466;2022-09-01T12:50:49;76464.16;;;-144.48;25.92
68758;BME280;55747;51.998;4.466;2022-09-01T12:53:18;76420.53;;;-144.48;25.63
68758;BME280;55747;51.998;4.466;2022-09-01T12:55:55;76526.50;;;-144.48;27.01
68758;BME280;55747;51.998;4.466;2022-09-01T12:58:24;76428.84;;;-144.48;25.61
68758;BME280;55747;51.998;4.466;2022-09-01T13:03:19;76441.31;;;-144.48;25.54
68758;BME280;55747;51.998;4.466;2022-09-01T13:05:52;76593.00;;;-144.48;26.82
68758;BME280;55747;51.998;4.466;2022-09-01T13:08:21;76433.00;;;-144.48;25.70
68758;BME280;55747;51.998;4.466;2022-09-01T13:10:49;76453.78;;;-144.48;26.16
68758;BME280;55747;51.998;4.466;2022-09-01T13:13:16;76430.94;;;-144.48;25.98
68758;BME280;55747;51.998;4.466;2022-09-01T13:15:44;76430.94;;;-144.48;25.53
68758;BME280;55747;51.998;4.466;2022-09-01T13:18:12;76447.56;;;-144.48;25.09
68758;BME280;55747;51.998;4.466;2022-09-01T13:20:38;76393.53;;;-144.48;24.86
68758;BME280;55747;51.998;4.466;2022-09-01T13:23:03;76424.69;;;-144.48;25.18
68758;BME280;55747;51.998;4.466;2022-09-01T13:25:28;76391.44;;;-144.48;25.09
68758;BME280;55747;51.998;4.466;2022-09-01T13:27:53;76368.59;;;-144.48;25.27
68758;BME280;55747;51.998;4.466;2022-09-01T13:30:22;76322.88;;;-144.48;24.74
68758;BME280;55747;51.998;4.466;2022-09-01T13:32:49;76381.06;;;-144.48;24.51
68758;BME280;55747;51.998;4.466;2022-09-01T13:35:18;76482.88;;;-144.48;25.33
68758;BME280;55747;51.998;4.466;2022-09-01T13:37:45;76501.56;;;-144.48;25.46
68758;BME280;55747;51.998;4.466;2022-09-01T13:40:13;76536.91;;;-144.48;25.58
68758;BME280;55747;51.998;4.466;2022-09-01T13:42:48;76422.63;;;-144.48;25.03
68758;BME280;55747;51.998;4.466;2022-09-01T13:45:15;76341.59;;;-144.48;24.63